Russellville, AR

9:39 PM CDT on August 24, 2016 (GMT -0500)
Russellville Regional | | Change Station

Elev 404 ft 35.26 °N, 93.09 °W | Updated 46 minutes ago

Clear
Clear
79 °F
Feels Like 79 °F
N
4
Wind Variable Wind from Variable

Today
High -- | Low -- °F
--% Chance of Precip.
Yesterday
High -- | Low -- °F
Precip. -- in
Pressure 30.04 in
Visibility 10.0 miles
Clouds Clear
Dew Point 70 °F
Humidity 74%
Rainfall 0.00 in
Snow Depth Not available.
6:39 AM 7:49 PM
Waning Gibbous, 51% visible
METAR KRUE 250153Z AUTO VRB03KT 10SM CLR 26/21 A3006 RMK AO2 SLP170 T02610211
Pressure 30.04 in
Visibility 10.0 miles
Clouds Clear
Dew Point 70 °F
Humidity 74%
Rainfall 0.00 in
Snow Depth Not available.
6:39 AM 7:49 PM
Waning Gibbous, 51% visible
METAR KRUE 250153Z AUTO VRB03KT 10SM CLR 26/21 A3006 RMK AO2 SLP170 T02610211

10-Day Weather Forecast

Almanac

Astronomy

Aug. 24, 2016 Rise Set
Actual Time
Civil Twilight
Nautical Twilight
Astronomical Twilight
Moon
Length of Visible Light
Length of Day
Tomorrow will be .
, % of the Moon is Illuminated

Today's Extremes

State Highs State Lows

Community

WunderPhotos

Upload Photos

1,934,778 photos uploaded!

WunderBlog® & News

Nearby

Air Quality

  Air Quality AQ Index Pollutant
Not available.

Snow Depth

Station Depth Elevation

Earthquake Activity

City Distance Mag. Time & Date
Minimum magnitude displayed is 2.5.

Coastal Water Temperatures

Place Temperature

Stations

Nearby Weather Stations

Station Location Temp. Windchill Dew Point Humidity Wind Precip. Elev Updated Type
                   

Watches & Warnings

There are currently no watches in effect.